sensor_id;sensor_type;location;lat;lon;timestamp;temperature;humidity
2435;DHT22;1228;51.022;6.764;2024-03-06T00:00:06;7.60;99.90
2435;DHT22;1228;51.022;6.764;2024-03-06T00:02:34;7.60;99.90
2435;DHT22;1228;51.022;6.764;2024-03-06T00:04:59;7.50;99.90
2435;DHT22;1228;51.022;6.764;2024-03-06T00:07:25;7.50;99.90
2435;DHT22;1228;51.022;6.764;2024-03-06T00:09:51;7.50;99.90
2435;DHT22;1228;51.022;6.764;2024-03-06T00:12:18;7.40;99.90
2435;DHT22;1228;51.022;6.764;2024-03-06T00:14:44;7.40;99.90
2435;DHT22;1228;51.022;6.764;2024-03-06T00:17:09;7.40;99.90
2435;DHT22;1228;51.022;6.764;2024-03-06T00:19:35;7.30;99.90
2435;DHT22;1228;51.022;6.764;2024-03-06T00:22:01;7.30;99.90
2435;DHT22;1228;51.022;6.764;2024-03-06T00:24:28;7.20;99.90
2435;DHT22;1228;51.022;6.764;2024-03-06T00:26:53;7.20;99.90
2435;DHT22;1228;51.022;6.764;2024-03-06T00:29:19;7.20;99.90
2435;DHT22;1228;51.022;6.764;2024-03-06T00:31:45;7.20;99.90
2435;DHT22;1228;51.022;6.764;2024-03-06T00:34:11;7.20;99.90
2435;DHT22;1228;51.022;6.764;2024-03-06T00:36:39;7.20;99.90
2435;DHT22;1228;51.022;6.764;2024-03-06T00:39:05;7.10;99.90
2435;DHT22;1228;51.022;6.764;2024-03-06T00:41:31;7.10;99.90
2435;DHT22;1228;51.022;6.764;2024-03-06T00:43:57;7.00;99.90
2435;DHT22;1228;51.022;6.764;2024-03-06T00:46:23;7.00;99.90
2435;DHT22;1228;51.022;6.764;2024-03-06T00:48:48;7.00;99.90
2435;DHT22;1228;51.022;6.764;2024-03-06T00:51:14;7.00;99.90
2435;DHT22;1228;51.022;6.764;2024-03-06T00:53:40;7.00;99.90
2435;DHT22;1228;51.022;6.764;2024-03-06T00:56:07;7.00;99.90
2435;DHT22;1228;51.022;6.764;2024-03-06T00:58:33;6.90;99.90
2435;DHT22;1228;51.022;6.764;2024-03-06T01:00:58;6.90;99.90
2435;DHT22;1228;51.022;6.764;2024-03-06T01:03:24;6.90;99.90
2435;DHT22;1228;51.022;6.764;2024-03-06T01:05:50;6.80;99.90
2435;DHT22;1228;51.022;6.764;2024-03-06T01:08:17;6.80;99.90
2435;DHT22;1228;51.022;6.764;2024-03-06T01:10:43;6.80;99.90
2435;DHT22;1228;51.022;6.764;2024-03-06T01:13:09;6.80;99.90
2435;DHT22;1228;51.022;6.764;2024-03-06T01:15:36;6.80;99.90
2435;DHT22;1228;51.022;6.764;2024-03-06T01:18:02;6.80;99.90
2435;DHT22;1228;51.022;6.764;2024-03-06T01:20:29;6.80;99.90
2435;DHT22;1228;51.022;6.764;2024-03-06T01:22:54;6.80;99.90
2435;DHT22;1228;51.022;6.764;2024-03-06T01:25:20;6.70;99.90
2435;DHT22;1228;51.022;6.764;2024-03-06T01:27:48;6.70;99.90
2435;DHT22;1228;51.022;6.764;2024-03-06T01:30:14;6.60;99.90
2435;DHT22;1228;51.022;6.764;2024-03-06T01:32:40;6.60;99.90
2435;DHT22;1228;51.022;6.764;2024-03-06T01:35:06;6.50;99.90
2435;DHT22;1228;51.022;6.764;2024-03-06T01:37:32;6.40;99.90
2435;DHT22;1228;51.022;6.764;2024-03-06T01:39:57;6.30;99.90
2435;DHT22;1228;51.022;6.764;2024-03-06T01:42:23;6.20;99.90
2435;DHT22;1228;51.022;6.764;2024-03-06T01:44:49;6.10;99.90
2435;DHT22;1228;51.022;6.764;2024-03-06T01:47:15;6.00;99.90
2435;DHT22;1228;51.022;6.764;2024-03-06T01:49:41;5.90;99.90
2435;DHT22;1228;51.022;6.764;2024-03-06T01:52:09;5.80;99.90
2435;DHT22;1228;51.022;6.764;2024-03-06T01:54:35;5.70;99.90
2435;DHT22;1228;51.022;6.764;2024-03-06T01:57:01;5.60;99.90
2435;DHT22;1228;51.022;6.764;2024-03-06T01:59:28;5.50;99.90
2435;DHT22;1228;51.022;6.764;2024-03-06T02:01:54;5.40;99.90
2435;DHT22;1228;51.022;6.764;2024-03-06T02:04:20;5.30;99.90
2435;DHT22;1228;51.022;6.764;2024-03-06T02:06:46;5.20;99.90
2435;DHT22;1228;51.022;6.764;2024-03-06T02:09:13;5.20;99.90
2435;DHT22;1228;51.022;6.764;2024-03-06T02:11:42;5.20;99.90
2435;DHT22;1228;51.022;6.764;2024-03-06T02:14:07;5.20;99.90
2435;DHT22;1228;51.022;6.764;2024-03-06T02:16:36;5.10;99.90
2435;DHT22;1228;51.022;6.764;2024-03-06T02:19:01;5.10;99.90
2435;DHT22;1228;51.022;6.764;2024-03-06T02:21:27;5.20;99.90
2435;DHT22;1228;51.022;6.764;2024-03-06T02:23:52;5.10;99.90
2435;DHT22;1228;51.022;6.764;2024-03-06T02:26:20;5.10;99.90
2435;DHT22;1228;51.022;6.764;2024-03-06T02:28:52;5.20;99.90
2435;DHT22;1228;51.022;6.764;2024-03-06T02:31:22;5.10;99.90
2435;DHT22;1228;51.022;6.764;2024-03-06T02:33:49;5.00;99.90
2435;DHT22;1228;51.022;6.764;2024-03-06T02:36:18;5.00;99.90
2435;DHT22;1228;51.022;6.764;2024-03-06T02:38:45;5.00;99.90
2435;DHT22;1228;51.022;6.764;2024-03-06T02:41:11;4.90;99.90
2435;DHT22;1228;51.022;6.764;2024-03-06T02:43:39;4.90;99.90
2435;DHT22;1228;51.022;6.764;2024-03-06T02:46:05;4.90;99.90
2435;DHT22;1228;51.022;6.764;2024-03-06T02:48:30;4.90;99.90
2435;DHT22;1228;51.022;6.764;2024-03-06T02:50:57;4.80;99.90
2435;DHT22;1228;51.022;6.764;2024-03-06T02:53:22;4.80;99.90
2435;DHT22;1228;51.022;6.764;2024-03-06T02:55:48;4.80;99.90
2435;DHT22;1228;51.022;6.764;2024-03-06T02:58:15;4.60;99.90
2435;DHT22;1228;51.022;6.764;2024-03-06T03:00:42;4.60;99.90
2435;DHT22;1228;51.022;6.764;2024-03-06T03:03:08;4.50;99.90
2435;DHT22;1228;51.022;6.764;2024-03-06T03:05:35;4.50;99.90
2435;DHT22;1228;51.022;6.764;2024-03-06T03:08:01;4.60;99.90
2435;DHT22;1228;51.022;6.764;2024-03-06T03:10:29;4.60;99.90
2435;DHT22;1228;51.022;6.764;2024-03-06T03:12:54;4.60;99.90
2435;DHT22;1228;51.022;6.764;2024-03-06T03:15:20;4.60;99.90
2435;DHT22;1228;51.022;6.764;2024-03-06T03:17:46;4.60;99.90
2435;DHT22;1228;51.022;6.764;2024-03-06T03:20:11;4.70;99.90
2435;DHT22;1228;51.022;6.764;2024-03-06T03:22:40;4.70;99.90
2435;DHT22;1228;51.022;6.764;2024-03-06T03:25:09;4.80;99.90
2435;DHT22;1228;51.022;6.764;2024-03-06T03:27:37;4.80;99.90
2435;DHT22;1228;51.022;6.764;2024-03-06T03:30:04;4.90;99.90
2435;DHT22;1228;51.022;6.764;2024-03-06T03:32:30;4.90;99.90
2435;DHT22;1228;51.022;6.764;2024-03-06T03:34:56;5.00;99.90
2435;DHT22;1228;51.022;6.764;2024-03-06T03:37:21;5.10;99.90
2435;DHT22;1228;51.022;6.764;2024-03-06T03:39:47;5.10;99.90
2435;DHT22;1228;51.022;6.764;2024-03-06T03:42:13;5.20;99.90
2435;DHT22;1228;51.022;6.764;2024-03-06T03:44:38;5.20;99.90
2435;DHT22;1228;51.022;6.764;2024-03-06T03:47:05;5.20;99.90
2435;DHT22;1228;51.022;6.764;2024-03-06T03:49:30;5.30;99.90
2435;DHT22;1228;51.022;6.764;2024-03-06T03:51:56;5.30;99.90
2435;DHT22;1228;51.022;6.764;2024-03-06T03:54:21;5.30;99.90
2435;DHT22;1228;51.022;6.764;2024-03-06T03:56:47;5.40;99.90
2435;DHT22;1228;51.022;6.764;2024-03-06T03:59:14;5.30;99.90
2435;DHT22;1228;51.022;6.764;2024-03-06T04:01:39;5.30;99.90
2435;DHT22;1228;51.022;6.764;2024-03-06T04:04:05;5.40;99.90
2435;DHT22;1228;51.022;6.764;2024-03-06T04:06:32;5.40;99.90
2435;DHT22;1228;51.022;6.764;2024-03-06T04:08:57;5.40;99.90
2435;DHT22;1228;51.022;6.764;2024-03-06T04:11:23;5.40;99.90
2435;DHT22;1228;51.022;6.764;2024-03-06T04:13:49;5.40;99.90
2435;DHT22;1228;51.022;6.764;2024-03-06T04:16:18;5.50;99.90
2435;DHT22;1228;51.022;6.764;2024-03-06T04:18:44;5.50;99.90
2435;DHT22;1228;51.022;6.764;2024-03-06T04:21:11;5.60;99.90
2435;DHT22;1228;51.022;6.764;2024-03-06T04:23:36;5.60;99.90
2435;DHT22;1228;51.022;6.764;2024-03-06T04:26:03;5.70;99.90
2435;DHT22;1228;51.022;6.764;2024-03-06T04:28:29;5.70;99.90
2435;DHT22;1228;51.022;6.764;2024-03-06T04:30:55;5.80;99.90
2435;DHT22;1228;51.022;6.764;2024-03-06T04:33:21;5.80;99.90
2435;DHT22;1228;51.022;6.764;2024-03-06T04:35:47;5.80;99.90
2435;DHT22;1228;51.022;6.764;2024-03-06T04:38:12;5.80;99.90
2435;DHT22;1228;51.022;6.764;2024-03-06T04:40:38;5.80;99.90
2435;DHT22;1228;51.022;6.764;2024-03-06T04:43:04;5.80;99.90
2435;DHT22;1228;51.022;6.764;2024-03-06T04:47:58;5.80;99.90
2435;DHT22;1228;51.022;6.764;2024-03-06T04:50:23;5.80;99.90
2435;DHT22;1228;51.022;6.764;2024-03-06T04:52:49;5.80;99.90
2435;DHT22;1228;51.022;6.764;2024-03-06T04:55:15;5.80;99.90
2435;DHT22;1228;51.022;6.764;2024-03-06T04:57:45;5.80;99.90
2435;DHT22;1228;51.022;6.764;2024-03-06T05:00:12;5.80;99.90
2435;DHT22;1228;51.022;6.764;2024-03-06T05:02:38;5.80;99.90
2435;DHT22;1228;51.022;6.764;2024-03-06T05:05:04;5.70;99.90
2435;DHT22;1228;51.022;6.764;2024-03-06T05:07:31;5.70;99.90
2435;DHT22;1228;51.022;6.764;2024-03-06T05:09:58;5.80;99.90
2435;DHT22;1228;51.022;6.764;2024-03-06T05:12:27;5.70;99.90
2435;DHT22;1228;51.022;6.764;2024-03-06T05:14:54;5.70;99.90
2435;DHT22;1228;51.022;6.764;2024-03-06T05:17:20;5.70;99.90
2435;DHT22;1228;51.022;6.764;2024-03-06T05:19:46;5.80;99.90
2435;DHT22;1228;51.022;6.764;2024-03-06T05:22:13;5.80;99.90
2435;DHT22;1228;51.022;6.764;2024-03-06T05:24:39;5.80;99.90
2435;DHT22;1228;51.022;6.764;2024-03-06T05:27:04;5.80;99.90
2435;DHT22;1228;51.022;6.764;2024-03-06T05:29:30;5.80;99.90
2435;DHT22;1228;51.022;6.764;2024-03-06T05:31:55;5.90;99.90
2435;DHT22;1228;51.022;6.764;2024-03-06T05:34:22;5.90;99.90
2435;DHT22;1228;51.022;6.764;2024-03-06T05:36:48;5.90;99.90
2435;DHT22;1228;51.022;6.764;2024-03-06T05:39:14;6.00;99.90
2435;DHT22;1228;51.022;6.764;2024-03-06T05:41:40;6.00;99.90
2435;DHT22;1228;51.022;6.764;2024-03-06T05:44:06;5.90;99.90
2435;DHT22;1228;51.022;6.764;2024-03-06T05:46:32;5.90;99.90
2435;DHT22;1228;51.022;6.764;2024-03-06T05:48:58;6.00;99.90
2435;DHT22;1228;51.022;6.764;2024-03-06T05:51:23;6.00;99.90
2435;DHT22;1228;51.022;6.764;2024-03-06T05:53:49;6.00;99.90
2435;DHT22;1228;51.022;6.764;2024-03-06T05:56:14;6.00;99.90
2435;DHT22;1228;51.022;6.764;2024-03-06T05:58:40;5.90;99.90
2435;DHT22;1228;51.022;6.764;2024-03-06T06:01:06;6.00;99.90
2435;DHT22;1228;51.022;6.764;2024-03-06T06:03:31;5.90;99.90
2435;DHT22;1228;51.022;6.764;2024-03-06T06:05:57;5.90;99.90
2435;DHT22;1228;51.022;6.764;2024-03-06T06:08:24;5.90;99.90
2435;DHT22;1228;51.022;6.764;2024-03-06T06:10:49;5.90;99.90
2435;DHT22;1228;51.022;6.764;2024-03-06T06:13:17;6.00;99.90
2435;DHT22;1228;51.022;6.764;2024-03-06T06:15:43;5.90;99.90
2435;DHT22;1228;51.022;6.764;2024-03-06T06:18:09;5.90;99.90
2435;DHT22;1228;51.022;6.764;2024-03-06T06:20:34;5.90;99.90
2435;DHT22;1228;51.022;6.764;2024-03-06T06:23:01;5.90;99.90
2435;DHT22;1228;51.022;6.764;2024-03-06T06:25:26;5.90;99.90
2435;DHT22;1228;51.022;6.764;2024-03-06T06:27:52;6.00;99.90
2435;DHT22;1228;51.022;6.764;2024-03-06T06:30:18;6.00;99.90
2435;DHT22;1228;51.022;6.764;2024-03-06T06:32:43;6.00;99.90
2435;DHT22;1228;51.022;6.764;2024-03-06T06:35:10;6.10;99.90
2435;DHT22;1228;51.022;6.764;2024-03-06T06:37:37;6.00;99.90
2435;DHT22;1228;51.022;6.764;2024-03-06T06:40:03;6.00;99.90
2435;DHT22;1228;51.022;6.764;2024-03-06T06:42:32;5.90;99.90
2435;DHT22;1228;51.022;6.764;2024-03-06T06:44:59;5.80;99.90
2435;DHT22;1228;51.022;6.764;2024-03-06T06:47:25;5.70;99.90
2435;DHT22;1228;51.022;6.764;2024-03-06T06:49:50;5.60;99.90
2435;DHT22;1228;51.022;6.764;2024-03-06T06:52:16;5.50;99.90
2435;DHT22;1228;51.022;6.764;2024-03-06T06:54:42;5.50;99.90
2435;DHT22;1228;51.022;6.764;2024-03-06T06:57:08;5.40;99.90
2435;DHT22;1228;51.022;6.764;2024-03-06T06:59:34;5.40;99.90
2435;DHT22;1228;51.022;6.764;2024-03-06T07:02:00;5.40;99.90
2435;DHT22;1228;51.022;6.764;2024-03-06T07:04:26;5.50;99.90
2435;DHT22;1228;51.022;6.764;2024-03-06T07:06:51;5.50;99.90
2435;DHT22;1228;51.022;6.764;2024-03-06T07:09:19;5.40;99.90
2435;DHT22;1228;51.022;6.764;2024-03-06T07:11:44;5.40;99.90
2435;DHT22;1228;51.022;6.764;2024-03-06T07:14:12;5.40;99.90
2435;DHT22;1228;51.022;6.764;2024-03-06T07:16:44;5.40;99.90
2435;DHT22;1228;51.022;6.764;2024-03-06T07:19:10;5.50;99.90
2435;DHT22;1228;51.022;6.764;2024-03-06T07:21:36;5.60;99.90
2435;DHT22;1228;51.022;6.764;2024-03-06T07:24:03;5.70;99.90
2435;DHT22;1228;51.022;6.764;2024-03-06T07:26:29;5.70;99.90
2435;DHT22;1228;51.022;6.764;2024-03-06T07:28:56;5.80;99.90
2435;DHT22;1228;51.022;6.764;2024-03-06T07:31:21;5.80;99.90
2435;DHT22;1228;51.022;6.764;2024-03-06T07:33:47;5.90;99.90
2435;DHT22;1228;51.022;6.764;2024-03-06T07:36:12;5.90;99.90
2435;DHT22;1228;51.022;6.764;2024-03-06T07:38:38;6.00;99.90
2435;DHT22;1228;51.022;6.764;2024-03-06T07:41:03;6.10;99.90
2435;DHT22;1228;51.022;6.764;2024-03-06T07:43:29;6.30;99.90
2435;DHT22;1228;51.022;6.764;2024-03-06T07:45:55;6.50;99.90
2435;DHT22;1228;51.022;6.764;2024-03-06T07:48:20;6.80;99.90
2435;DHT22;1228;51.022;6.764;2024-03-06T07:50:46;7.10;99.90
2435;DHT22;1228;51.022;6.764;2024-03-06T07:53:12;7.60;99.90
2435;DHT22;1228;51.022;6.764;2024-03-06T07:55:37;8.00;99.90
2435;DHT22;1228;51.022;6.764;2024-03-06T07:58:04;8.10;99.90
2435;DHT22;1228;51.022;6.764;2024-03-06T08:00:30;8.00;99.90
2435;DHT22;1228;51.022;6.764;2024-03-06T08:02:56;7.80;99.90
2435;DHT22;1228;51.022;6.764;2024-03-06T08:05:22;7.80;99.90
2435;DHT22;1228;51.022;6.764;2024-03-06T08:07:48;7.80;99.90
2435;DHT22;1228;51.022;6.764;2024-03-06T08:10:14;7.80;99.90
2435;DHT22;1228;51.022;6.764;2024-03-06T08:12:41;7.80;99.90
2435;DHT22;1228;51.022;6.764;2024-03-06T08:15:09;7.90;99.90
2435;DHT22;1228;51.022;6.764;2024-03-06T08:17:35;7.90;99.90
2435;DHT22;1228;51.022;6.764;2024-03-06T08:20:04;8.00;99.90
2435;DHT22;1228;51.022;6.764;2024-03-06T08:22:34;8.00;99.90
2435;DHT22;1228;51.022;6.764;2024-03-06T08:25:05;8.20;99.90
2435;DHT22;1228;51.022;6.764;2024-03-06T08:27:31;8.40;99.90
2435;DHT22;1228;51.022;6.764;2024-03-06T08:29:56;8.50;99.90
2435;DHT22;1228;51.022;6.764;2024-03-06T08:32:22;8.70;99.90
2435;DHT22;1228;51.022;6.764;2024-03-06T08:34:48;9.10;99.90
2435;DHT22;1228;51.022;6.764;2024-03-06T08:37:13;9.50;99.90
2435;DHT22;1228;51.022;6.764;2024-03-06T08:39:39;10.00;99.90
2435;DHT22;1228;51.022;6.764;2024-03-06T08:42:05;10.40;99.90
2435;DHT22;1228;51.022;6.764;2024-03-06T08:44:30;10.80;99.90
2435;DHT22;1228;51.022;6.764;2024-03-06T08:46:56;11.60;99.90
2435;DHT22;1228;51.022;6.764;2024-03-06T08:49:21;12.40;99.90
2435;DHT22;1228;51.022;6.764;2024-03-06T08:51:47;12.90;99.90
2435;DHT22;1228;51.022;6.764;2024-03-06T08:54:12;13.50;99.90
2435;DHT22;1228;51.022;6.764;2024-03-06T08:56:38;13.90;99.90
2435;DHT22;1228;51.022;6.764;2024-03-06T08:59:04;14.20;99.90
2435;DHT22;1228;51.022;6.764;2024-03-06T09:01:29;14.30;99.90
2435;DHT22;1228;51.022;6.764;2024-03-06T09:03:55;14.50;99.90
2435;DHT22;1228;51.022;6.764;2024-03-06T09:06:22;14.60;99.90
2435;DHT22;1228;51.022;6.764;2024-03-06T09:08:48;14.50;99.90
2435;DHT22;1228;51.022;6.764;2024-03-06T09:11:14;14.80;99.90
2435;DHT22;1228;51.022;6.764;2024-03-06T09:13:39;15.10;99.90
2435;DHT22;1228;51.022;6.764;2024-03-06T09:16:05;15.10;99.90
2435;DHT22;1228;51.022;6.764;2024-03-06T09:18:31;15.10;99.90
2435;DHT22;1228;51.022;6.764;2024-03-06T09:20:56;15.40;99.90
2435;DHT22;1228;51.022;6.764;2024-03-06T09:23:22;15.80;99.90
2435;DHT22;1228;51.022;6.764;2024-03-06T09:25:47;16.30;99.90
2435;DHT22;1228;51.022;6.764;2024-03-06T09:28:13;16.50;99.90
2435;DHT22;1228;51.022;6.764;2024-03-06T09:30:39;16.60;99.90
2435;DHT22;1228;51.022;6.764;2024-03-06T09:33:05;16.70;99.90
2435;DHT22;1228;51.022;6.764;2024-03-06T09:35:30;17.00;99.90
2435;DHT22;1228;51.022;6.764;2024-03-06T09:37:58;17.30;99.90
2435;DHT22;1228;51.022;6.764;2024-03-06T09:40:23;17.50;99.90
2435;DHT22;1228;51.022;6.764;2024-03-06T09:42:50;17.70;99.90
2435;DHT22;1228;51.022;6.764;2024-03-06T09:45:17;18.10;99.90
2435;DHT22;1228;51.022;6.764;2024-03-06T09:47:45;18.30;99.90
2435;DHT22;1228;51.022;6.764;2024-03-06T09:50:16;18.50;99.90
2435;DHT22;1228;51.022;6.764;2024-03-06T09:52:46;18.60;99.90
2435;DHT22;1228;51.022;6.764;2024-03-06T09:55:13;18.50;99.90
2435;DHT22;1228;51.022;6.764;2024-03-06T09:57:40;18.60;99.90
2435;DHT22;1228;51.022;6.764;2024-03-06T10:00:06;18.50;99.90
2435;DHT22;1228;51.022;6.764;2024-03-06T10:02:38;18.50;99.90
2435;DHT22;1228;51.022;6.764;2024-03-06T10:05:04;18.40;99.90
2435;DHT22;1228;51.022;6.764;2024-03-06T10:07:31;18.30;99.90
2435;DHT22;1228;51.022;6.764;2024-03-06T10:09:57;18.20;99.90
2435;DHT22;1228;51.022;6.764;2024-03-06T10:12:22;18.00;99.90
2435;DHT22;1228;51.022;6.764;2024-03-06T10:14:52;17.90;99.90
2435;DHT22;1228;51.022;6.764;2024-03-06T10:17:21;17.90;99.90
2435;DHT22;1228;51.022;6.764;2024-03-06T10:19:52;17.70;99.90
2435;DHT22;1228;51.022;6.764;2024-03-06T10:22:19;17.70;99.90
2435;DHT22;1228;51.022;6.764;2024-03-06T10:24:45;17.80;99.90
2435;DHT22;1228;51.022;6.764;2024-03-06T10:27:15;17.70;99.90
2435;DHT22;1228;51.022;6.764;2024-03-06T10:29:44;17.30;99.90
2435;DHT22;1228;51.022;6.764;2024-03-06T10:32:09;17.40;99.90
2435;DHT22;1228;51.022;6.764;2024-03-06T10:34:37;17.40;99.90
2435;DHT22;1228;51.022;6.764;2024-03-06T10:37:04;17.30;99.90
2435;DHT22;1228;51.022;6.764;2024-03-06T10:39:36;17.10;99.90
2435;DHT22;1228;51.022;6.764;2024-03-06T10:42:07;17.10;99.90
2435;DHT22;1228;51.022;6.764;2024-03-06T10:44:34;17.10;99.90
2435;DHT22;1228;51.022;6.764;2024-03-06T10:47:04;16.80;99.90
2435;DHT22;1228;51.022;6.764;2024-03-06T10:49:31;16.10;99.90
2435;DHT22;1228;51.022;6.764;2024-03-06T10:52:02;16.20;99.90
2435;DHT22;1228;51.022;6.764;2024-03-06T10:54:31;16.50;99.90
2435;DHT22;1228;51.022;6.764;2024-03-06T10:56:57;16.70;99.90
2435;DHT22;1228;51.022;6.764;2024-03-06T10:59:26;16.80;99.90
2435;DHT22;1228;51.022;6.764;2024-03-06T11:01:58;16.90;99.90
2435;DHT22;1228;51.022;6.764;2024-03-06T11:04:31;16.70;99.90
2435;DHT22;1228;51.022;6.764;2024-03-06T11:07:01;16.70;99.90
2435;DHT22;1228;51.022;6.764;2024-03-06T11:09:28;17.20;99.90
2435;DHT22;1228;51.022;6.764;2024-03-06T11:11:54;17.40;99.90
2435;DHT22;1228;51.022;6.764;2024-03-06T11:14:22;17.10;99.90
2435;DHT22;1228;51.022;6.764;2024-03-06T11:17:05;17.20;99.90
2435;DHT22;1228;51.022;6.764;2024-03-06T11:19:33;17.90;99.90
2435;DHT22;1228;51.022;6.764;2024-03-06T11:22:18;18.10;99.90
2435;DHT22;1228;51.022;6.764;2024-03-06T11:24:43;18.60;99.90
2435;DHT22;1228;51.022;6.764;2024-03-06T11:27:09;18.60;99.90
2435;DHT22;1228;51.022;6.764;2024-03-06T11:30:08;18.70;99.90
2435;DHT22;1228;51.022;6.764;2024-03-06T11:32:57;18.70;99.90
2435;DHT22;1228;51.022;6.764;2024-03-06T11:35:24;18.50;99.90
2435;DHT22;1228;51.022;6.764;2024-03-06T11:37:50;18.70;99.90
2435;DHT22;1228;51.022;6.764;2024-03-06T11:40:23;18.70;99.90
2435;DHT22;1228;51.022;6.764;2024-03-06T11:42:50;18.80;99.90
2435;DHT22;1228;51.022;6.764;2024-03-06T11:45:16;18.70;99.90
2435;DHT22;1228;51.022;6.764;2024-03-06T11:48:02;18.60;99.90
2435;DHT22;1228;51.022;6.764;2024-03-06T11:50:29;18.40;99.90
2435;DHT22;1228;51.022;6.764;2024-03-06T11:52:57;18.20;99.90
2435;DHT22;1228;51.022;6.764;2024-03-06T11:55:23;18.30;99.90
2435;DHT22;1228;51.022;6.764;2024-03-06T11:57:51;18.40;99.90
2435;DHT22;1228;51.022;6.764;2024-03-06T12:00:24;18.50;99.90
2435;DHT22;1228;51.022;6.764;2024-03-06T12:02:50;18.50;99.90
2435;DHT22;1228;51.022;6.764;2024-03-06T12:05:17;18.40;99.90
2435;DHT22;1228;51.022;6.764;2024-03-06T12:07:52;18.20;99.90
2435;DHT22;1228;51.022;6.764;2024-03-06T12:10:18;18.10;99.90
2435;DHT22;1228;51.022;6.764;2024-03-06T12:12:44;18.30;99.90
2435;DHT22;1228;51.022;6.764;2024-03-06T12:15:14;18.30;99.90
2435;DHT22;1228;51.022;6.764;2024-03-06T12:17:47;18.50;99.90
2435;DHT22;1228;51.022;6.764;2024-03-06T12:20:16;19.00;99.90
2435;DHT22;1228;51.022;6.764;2024-03-06T12:22:52;19.30;99.90
2435;DHT22;1228;51.022;6.764;2024-03-06T12:25:22;19.30;99.90
2435;DHT22;1228;51.022;6.764;2024-03-06T12:27:48;19.10;99.90
2435;DHT22;1228;51.022;6.764;2024-03-06T12:30:18;18.90;99.90
2435;DHT22;1228;51.022;6.764;2024-03-06T12:32:44;18.50;99.90
2435;DHT22;1228;51.022;6.764;2024-03-06T12:35:10;18.30;99.90
2435;DHT22;1228;51.022;6.764;2024-03-06T12:37:36;17.90;99.90
2435;DHT22;1228;51.022;6.764;2024-03-06T12:40:02;17.40;99.90
2435;DHT22;1228;51.022;6.764;2024-03-06T12:42:30;16.90;99.90
2435;DHT22;1228;51.022;6.764;2024-03-06T12:44:56;16.60;99.90
2435;DHT22;1228;51.022;6.764;2024-03-06T12:47:22;16.70;99.90
2435;DHT22;1228;51.022;6.764;2024-03-06T12:49:47;16.80;99.90
2435;DHT22;1228;51.022;6.764;2024-03-06T12:52:13;16.70;99.90
2435;DHT22;1228;51.022;6.764;2024-03-06T12:54:39;16.80;99.90
2435;DHT22;1228;51.022;6.764;2024-03-06T12:57:05;17.00;99.90
2435;DHT22;1228;51.022;6.764;2024-03-06T12:59:30;17.00;99.90
2435;DHT22;1228;51.022;6.764;2024-03-06T13:01:56;17.20;99.90
2435;DHT22;1228;51.022;6.764;2024-03-06T13:04:22;17.50;99.90
2435;DHT22;1228;51.022;6.764;2024-03-06T13:06:48;17.50;99.90
2435;DHT22;1228;51.022;6.764;2024-03-06T13:09:14;17.70;99.90
2435;DHT22;1228;51.022;6.764;2024-03-06T13:11:40;17.20;99.90
2435;DHT22;1228;51.022;6.764;2024-03-06T13:14:07;17.20;99.90
2435;DHT22;1228;51.022;6.764;2024-03-06T13:16:35;16.90;99.90
2435;DHT22;1228;51.022;6.764;2024-03-06T13:19:01;16.90;99.90
2435;DHT22;1228;51.022;6.764;2024-03-06T13:21:28;16.90;99.90
2435;DHT22;1228;51.022;6.764;2024-03-06T13:23:54;17.00;99.90
2435;DHT22;1228;51.022;6.764;2024-03-06T13:26:20;17.10;99.90
2435;DHT22;1228;51.022;6.764;2024-03-06T13:28:46;17.00;99.90
2435;DHT22;1228;51.022;6.764;2024-03-06T13:31:12;17.00;99.90
2435;DHT22;1228;51.022;6.764;2024-03-06T13:33:38;17.10;99.90
2435;DHT22;1228;51.022;6.764;2024-03-06T13:36:04;17.10;99.90
2435;DHT22;1228;51.022;6.764;2024-03-06T13:38:29;17.10;99.90
2435;DHT22;1228;51.022;6.764;2024-03-06T13:40:55;17.10;99.90
2435;DHT22;1228;51.022;6.764;2024-03-06T13:43:20;17.10;99.90
2435;DHT22;1228;51.022;6.764;2024-03-06T13:45:50;17.10;99.90
2435;DHT22;1228;51.022;6.764;2024-03-06T13:48:16;17.00;99.90
2435;DHT22;1228;51.022;6.764;2024-03-06T13:50:45;16.90;99.90
2435;DHT22;1228;51.022;6.764;2024-03-06T13:53:11;17.00;99.90
2435;DHT22;1228;51.022;6.764;2024-03-06T13:55:37;17.30;99.90
2435;DHT22;1228;51.022;6.764;2024-03-06T13:58:03;17.60;99.90
2435;DHT22;1228;51.022;6.764;2024-03-06T14:00:28;17.40;99.90
2435;DHT22;1228;51.022;6.764;2024-03-06T14:02:55;17.30;99.90
2435;DHT22;1228;51.022;6.764;2024-03-06T14:05:20;17.30;99.90
2435;DHT22;1228;51.022;6.764;2024-03-06T14:07:51;17.20;99.90
2435;DHT22;1228;51.022;6.764;2024-03-06T14:10:16;17.10;99.90
2435;DHT22;1228;51.022;6.764;2024-03-06T14:12:45;17.20;99.90
2435;DHT22;1228;51.022;6.764;2024-03-06T14:15:10;17.20;99.90
2435;DHT22;1228;51.022;6.764;2024-03-06T14:17:38;17.10;99.90
2435;DHT22;1228;51.022;6.764;2024-03-06T14:20:04;17.00;99.90
2435;DHT22;1228;51.022;6.764;2024-03-06T14:22:30;16.60;99.90
2435;DHT22;1228;51.022;6.764;2024-03-06T14:24:55;16.50;99.90
2435;DHT22;1228;51.022;6.764;2024-03-06T14:27:21;16.40;99.90
2435;DHT22;1228;51.022;6.764;2024-03-06T14:29:47;16.60;99.90
2435;DHT22;1228;51.022;6.764;2024-03-06T14:32:13;16.60;99.90
2435;DHT22;1228;51.022;6.764;2024-03-06T14:34:39;16.70;99.90
2435;DHT22;1228;51.022;6.764;2024-03-06T14:37:05;16.70;99.90
2435;DHT22;1228;51.022;6.764;2024-03-06T14:39:30;16.70;99.90
2435;DHT22;1228;51.022;6.764;2024-03-06T14:41:56;16.90;99.90
2435;DHT22;1228;51.022;6.764;2024-03-06T14:44:21;17.10;99.90
2435;DHT22;1228;51.022;6.764;2024-03-06T14:46:47;17.20;99.90
2435;DHT22;1228;51.022;6.764;2024-03-06T14:49:13;17.20;99.90
2435;DHT22;1228;51.022;6.764;2024-03-06T14:51:41;17.10;99.90
2435;DHT22;1228;51.022;6.764;2024-03-06T14:54:06;17.20;99.90
2435;DHT22;1228;51.022;6.764;2024-03-06T14:56:32;17.30;99.90
2435;DHT22;1228;51.022;6.764;2024-03-06T14:58:58;17.20;99.90
2435;DHT22;1228;51.022;6.764;2024-03-06T15:01:24;17.50;99.90
2435;DHT22;1228;51.022;6.764;2024-03-06T15:03:53;17.70;99.90
2435;DHT22;1228;51.022;6.764;2024-03-06T15:06:19;17.80;99.90
2435;DHT22;1228;51.022;6.764;2024-03-06T15:08:45;17.80;99.90
2435;DHT22;1228;51.022;6.764;2024-03-06T15:11:11;17.70;99.90
2435;DHT22;1228;51.022;6.764;2024-03-06T15:13:37;17.70;99.50
2435;DHT22;1228;51.022;6.764;2024-03-06T15:16:03;17.40;99.20
2435;DHT22;1228;51.022;6.764;2024-03-06T15:18:33;17.40;99.90
2435;DHT22;1228;51.022;6.764;2024-03-06T15:20:59;17.40;99.90
2435;DHT22;1228;51.022;6.764;2024-03-06T15:23:25;17.50;99.90
2435;DHT22;1228;51.022;6.764;2024-03-06T15:25:50;17.50;99.90
2435;DHT22;1228;51.022;6.764;2024-03-06T15:28:16;17.50;99.80
2435;DHT22;1228;51.022;6.764;2024-03-06T15:30:42;17.40;99.90
2435;DHT22;1228;51.022;6.764;2024-03-06T15:33:07;17.20;99.90
2435;DHT22;1228;51.022;6.764;2024-03-06T15:35:34;17.00;99.90
2435;DHT22;1228;51.022;6.764;2024-03-06T15:37:59;16.70;99.90
2435;DHT22;1228;51.022;6.764;2024-03-06T15:40:25;16.50;99.90
2435;DHT22;1228;51.022;6.764;2024-03-06T15:42:51;16.60;99.90
2435;DHT22;1228;51.022;6.764;2024-03-06T15:45:16;16.60;99.90
2435;DHT22;1228;51.022;6.764;2024-03-06T15:47:42;16.60;99.90
2435;DHT22;1228;51.022;6.764;2024-03-06T15:50:09;16.50;99.90
2435;DHT22;1228;51.022;6.764;2024-03-06T15:52:37;16.10;99.90
2435;DHT22;1228;51.022;6.764;2024-03-06T15:55:04;15.80;99.90
2435;DHT22;1228;51.022;6.764;2024-03-06T15:57:30;15.30;99.90
2435;DHT22;1228;51.022;6.764;2024-03-06T15:59:57;14.90;99.90
2435;DHT22;1228;51.022;6.764;2024-03-06T16:02:22;14.60;99.90
2435;DHT22;1228;51.022;6.764;2024-03-06T16:04:49;14.40;99.90
2435;DHT22;1228;51.022;6.764;2024-03-06T16:07:15;14.10;99.90